sensor_id;sensor_type;location;lat;lon;timestamp;P1;durP1;ratioP1;P2;durP2;ratioP2
57155;SDS011;43023;59.928;10.682;2022-10-04T00:04:53;3.65;;;2.00;;
57155;SDS011;43023;59.928;10.682;2022-10-04T00:07:29;2.38;;;1.45;;
57155;SDS011;43023;59.928;10.682;2022-10-04T00:12:23;4.28;;;1.50;;
57155;SDS011;43023;59.928;10.682;2022-10-04T00:14:51;3.10;;;1.40;;
57155;SDS011;43023;59.928;10.682;2022-10-04T00:17:19;3.97;;;1.63;;
57155;SDS011;43023;59.928;10.682;2022-10-04T00:19:48;5.38;;;1.92;;
57155;SDS011;43023;59.928;10.682;2022-10-04T00:22:15;1.92;;;1.10;;
57155;SDS011;43023;59.928;10.682;2022-10-04T00:27:26;2.10;;;1.33;;
57155;SDS011;43023;59.928;10.682;2022-10-04T00:35:05;3.70;;;1.40;;
57155;SDS011;43023;59.928;10.682;2022-10-04T00:37:54;4.82;;;1.50;;
57155;SDS011;43023;59.928;10.682;2022-10-04T00:40:21;1.95;;;1.02;;
57155;SDS011;43023;59.928;10.682;2022-10-04T00:42:54;4.50;;;1.40;;
57155;SDS011;43023;59.928;10.682;2022-10-04T00:47:54;1.77;;;0.90;;
57155;SDS011;43023;59.928;10.682;2022-10-04T00:52:51;4.50;;;1.58;;
57155;SDS011;43023;59.928;10.682;2022-10-04T00:55:26;2.67;;;1.30;;
57155;SDS011;43023;59.928;10.682;2022-10-04T00:57:59;2.65;;;1.00;;
57155;SDS011;43023;59.928;10.682;2022-10-04T01:00:26;2.25;;;1.15;;
57155;SDS011;43023;59.928;10.682;2022-10-04T01:02:58;1.13;;;0.80;;
57155;SDS011;43023;59.928;10.682;2022-10-04T01:05:45;1.75;;;0.95;;
57155;SDS011;43023;59.928;10.682;2022-10-04T01:08:12;1.98;;;0.95;;
57155;SDS011;43023;59.928;10.682;2022-10-04T01:10:40;1.75;;;1.10;;
57155;SDS011;43023;59.928;10.682;2022-10-04T01:13:11;4.95;;;1.38;;
57155;SDS011;43023;59.928;10.682;2022-10-04T01:18:08;1.00;;;0.63;;
57155;SDS011;43023;59.928;10.682;2022-10-04T01:20:36;2.38;;;0.90;;
57155;SDS011;43023;59.928;10.682;2022-10-04T01:23:03;4.10;;;0.90;;
57155;SDS011;43023;59.928;10.682;2022-10-04T01:25:42;2.00;;;0.80;;
57155;SDS011;43023;59.928;10.682;2022-10-04T01:28:08;4.00;;;1.00;;
57155;SDS011;43023;59.928;10.682;2022-10-04T01:30:35;2.33;;;0.90;;
57155;SDS011;43023;59.928;10.682;2022-10-04T01:33:01;4.20;;;1.98;;
57155;SDS011;43023;59.928;10.682;2022-10-04T01:35:27;2.35;;;1.08;;
57155;SDS011;43023;59.928;10.682;2022-10-04T01:37:53;2.20;;;0.90;;
57155;SDS011;43023;59.928;10.682;2022-10-04T01:40:19;2.15;;;0.95;;
57155;SDS011;43023;59.928;10.682;2022-10-04T01:42:50;0.95;;;0.80;;
57155;SDS011;43023;59.928;10.682;2022-10-04T01:45:20;1.27;;;0.65;;
57155;SDS011;43023;59.928;10.682;2022-10-04T01:47:54;4.60;;;1.15;;
57155;SDS011;43023;59.928;10.682;2022-10-04T01:50:34;1.60;;;1.00;;
57155;SDS011;43023;59.928;10.682;2022-10-04T01:53:11;0.80;;;0.60;;
57155;SDS011;43023;59.928;10.682;2022-10-04T01:55:37;1.15;;;0.95;;
57155;SDS011;43023;59.928;10.682;2022-10-04T02:00:52;2.22;;;0.90;;
57155;SDS011;43023;59.928;10.682;2022-10-04T02:03:21;0.57;;;0.57;;
57155;SDS011;43023;59.928;10.682;2022-10-04T02:05:53;1.65;;;0.50;;
57155;SDS011;43023;59.928;10.682;2022-10-04T02:08:24;2.92;;;0.80;;
57155;SDS011;43023;59.928;10.682;2022-10-04T02:10:51;1.13;;;0.40;;
57155;SDS011;43023;59.928;10.682;2022-10-04T02:13:19;0.68;;;0.40;;
57155;SDS011;43023;59.928;10.682;2022-10-04T02:15:45;1.25;;;0.60;;
57155;SDS011;43023;59.928;10.682;2022-10-04T02:18:13;1.42;;;0.60;;
57155;SDS011;43023;59.928;10.682;2022-10-04T02:20:39;1.05;;;0.80;;
57155;SDS011;43023;59.928;10.682;2022-10-04T02:23:06;2.47;;;0.88;;
57155;SDS011;43023;59.928;10.682;2022-10-04T02:25:34;1.45;;;0.52;;
57155;SDS011;43023;59.928;10.682;2022-10-04T02:28:00;0.65;;;0.40;;
57155;SDS011;43023;59.928;10.682;2022-10-04T02:30:27;0.68;;;0.65;;
57155;SDS011;43023;59.928;10.682;2022-10-04T02:32:55;0.93;;;0.82;;
57155;SDS011;43023;59.928;10.682;2022-10-04T02:35:29;2.05;;;0.68;;
57155;SDS011;43023;59.928;10.682;2022-10-04T02:38:04;1.17;;;0.47;;
57155;SDS011;43023;59.928;10.682;2022-10-04T02:40:35;1.52;;;0.50;;
57155;SDS011;43023;59.928;10.682;2022-10-04T02:43:49;1.65;;;0.60;;
57155;SDS011;43023;59.928;10.682;2022-10-04T02:45:55;0.68;;;0.50;;
57155;SDS011;43023;59.928;10.682;2022-10-04T02:48:34;0.82;;;0.43;;
57155;SDS011;43023;59.928;10.682;2022-10-04T02:51:10;1.00;;;0.68;;
57155;SDS011;43023;59.928;10.682;2022-10-04T02:53:42;1.08;;;0.50;;
57155;SDS011;43023;59.928;10.682;2022-10-04T02:58:36;0.43;;;0.43;;
57155;SDS011;43023;59.928;10.682;2022-10-04T03:01:03;0.80;;;0.80;;
57155;SDS011;43023;59.928;10.682;2022-10-04T03:03:33;1.25;;;0.45;;
57155;SDS011;43023;59.928;10.682;2022-10-04T03:08:28;0.55;;;0.30;;
57155;SDS011;43023;59.928;10.682;2022-10-04T03:10:55;0.55;;;0.50;;
57155;SDS011;43023;59.928;10.682;2022-10-04T03:13:23;0.52;;;0.52;;
57155;SDS011;43023;59.928;10.682;2022-10-04T03:15:50;1.55;;;0.30;;
57155;SDS011;43023;59.928;10.682;2022-10-04T03:18:16;1.17;;;0.60;;
57155;SDS011;43023;59.928;10.682;2022-10-04T03:20:42;0.65;;;0.40;;
57155;SDS011;43023;59.928;10.682;2022-10-04T03:23:09;1.70;;;0.50;;
57155;SDS011;43023;59.928;10.682;2022-10-04T03:25:47;1.83;;;0.57;;
57155;SDS011;43023;59.928;10.682;2022-10-04T03:28:15;0.50;;;0.45;;
57155;SDS011;43023;59.928;10.682;2022-10-04T03:30:42;1.40;;;0.50;;
57155;SDS011;43023;59.928;10.682;2022-10-04T03:33:13;0.55;;;0.40;;
57155;SDS011;43023;59.928;10.682;2022-10-04T03:35:41;1.40;;;0.73;;
57155;SDS011;43023;59.928;10.682;2022-10-04T03:38:08;1.30;;;0.60;;
57155;SDS011;43023;59.928;10.682;2022-10-04T03:40:36;0.30;;;0.30;;
57155;SDS011;43023;59.928;10.682;2022-10-04T03:43:04;1.65;;;0.30;;
57155;SDS011;43023;59.928;10.682;2022-10-04T03:45:30;3.05;;;0.52;;
57155;SDS011;43023;59.928;10.682;2022-10-04T03:48:05;1.70;;;0.70;;
57155;SDS011;43023;59.928;10.682;2022-10-04T03:50:34;0.43;;;0.30;;
57155;SDS011;43023;59.928;10.682;2022-10-04T03:53:07;0.30;;;0.30;;
57155;SDS011;43023;59.928;10.682;2022-10-04T03:55:38;0.88;;;0.40;;
57155;SDS011;43023;59.928;10.682;2022-10-04T03:58:08;0.98;;;0.50;;
57155;SDS011;43023;59.928;10.682;2022-10-04T04:00:37;0.60;;;0.55;;
57155;SDS011;43023;59.928;10.682;2022-10-04T04:03:05;1.08;;;0.30;;
57155;SDS011;43023;59.928;10.682;2022-10-04T04:05:36;0.40;;;0.40;;
57155;SDS011;43023;59.928;10.682;2022-10-04T04:08:12;4.32;;;0.57;;
57155;SDS011;43023;59.928;10.682;2022-10-04T04:10:42;0.60;;;0.60;;
57155;SDS011;43023;59.928;10.682;2022-10-04T04:15:53;0.38;;;0.30;;
57155;SDS011;43023;59.928;10.682;2022-10-04T04:18:23;0.30;;;0.20;;
57155;SDS011;43023;59.928;10.682;2022-10-04T04:20:50;0.45;;;0.40;;
57155;SDS011;43023;59.928;10.682;2022-10-04T04:25:45;0.57;;;0.20;;
57155;SDS011;43023;59.928;10.682;2022-10-04T04:30:43;0.43;;;0.28;;
57155;SDS011;43023;59.928;10.682;2022-10-04T04:33:12;0.50;;;0.50;;
57155;SDS011;43023;59.928;10.682;2022-10-04T04:35:43;0.55;;;0.40;;
57155;SDS011;43023;59.928;10.682;2022-10-04T04:40:41;0.43;;;0.20;;
57155;SDS011;43023;59.928;10.682;2022-10-04T04:43:12;0.80;;;0.52;;
57155;SDS011;43023;59.928;10.682;2022-10-04T04:45:39;0.68;;;0.22;;
57155;SDS011;43023;59.928;10.682;2022-10-04T04:48:05;0.70;;;0.50;;
57155;SDS011;43023;59.928;10.682;2022-10-04T04:50:35;2.13;;;0.50;;
57155;SDS011;43023;59.928;10.682;2022-10-04T04:53:13;2.85;;;0.50;;
57155;SDS011;43023;59.928;10.682;2022-10-04T04:55:40;0.47;;;0.35;;
57155;SDS011;43023;59.928;10.682;2022-10-04T04:58:07;0.47;;;0.22;;
57155;SDS011;43023;59.928;10.682;2022-10-04T05:00:35;1.77;;;0.32;;
57155;SDS011;43023;59.928;10.682;2022-10-04T05:03:03;0.77;;;0.38;;
57155;SDS011;43023;59.928;10.682;2022-10-04T05:05:31;1.55;;;0.63;;
57155;SDS011;43023;59.928;10.682;2022-10-04T05:11:25;1.90;;;0.70;;
57155;SDS011;43023;59.928;10.682;2022-10-04T05:13:34;3.13;;;0.50;;
57155;SDS011;43023;59.928;10.682;2022-10-04T05:16:04;1.83;;;0.50;;
57155;SDS011;43023;59.928;10.682;2022-10-04T05:18:32;1.70;;;0.55;;
57155;SDS011;43023;59.928;10.682;2022-10-04T05:21:03;1.45;;;0.40;;
57155;SDS011;43023;59.928;10.682;2022-10-04T05:23:31;0.73;;;0.28;;
57155;SDS011;43023;59.928;10.682;2022-10-04T05:25:57;1.50;;;0.50;;
57155;SDS011;43023;59.928;10.682;2022-10-04T05:28:28;1.95;;;0.40;;
57155;SDS011;43023;59.928;10.682;2022-10-04T05:33:38;4.22;;;0.50;;
57155;SDS011;43023;59.928;10.682;2022-10-04T05:41:09;2.53;;;0.50;;
57155;SDS011;43023;59.928;10.682;2022-10-04T05:43:46;2.55;;;0.50;;
57155;SDS011;43023;59.928;10.682;2022-10-04T05:46:18;2.17;;;0.80;;
57155;SDS011;43023;59.928;10.682;2022-10-04T05:48:47;2.40;;;0.80;;
57155;SDS011;43023;59.928;10.682;2022-10-04T05:51:18;2.95;;;0.38;;
57155;SDS011;43023;59.928;10.682;2022-10-04T05:53:44;1.65;;;0.50;;
57155;SDS011;43023;59.928;10.682;2022-10-04T06:06:45;1.13;;;0.40;;
57155;SDS011;43023;59.928;10.682;2022-10-04T06:09:19;1.02;;;0.50;;
57155;SDS011;43023;59.928;10.682;2022-10-04T06:12:25;3.90;;;0.82;;
57155;SDS011;43023;59.928;10.682;2022-10-04T06:17:13;5.00;;;0.88;;
57155;SDS011;43023;59.928;10.682;2022-10-04T06:22:41;1.67;;;0.68;;
57155;SDS011;43023;59.928;10.682;2022-10-04T06:25:10;2.97;;;0.57;;
57155;SDS011;43023;59.928;10.682;2022-10-04T06:27:39;2.75;;;0.70;;
57155;SDS011;43023;59.928;10.682;2022-10-04T06:30:11;0.47;;;0.45;;
57155;SDS011;43023;59.928;10.682;2022-10-04T06:32:48;2.75;;;0.50;;
57155;SDS011;43023;59.928;10.682;2022-10-04T06:38:04;2.40;;;0.85;;
57155;SDS011;43023;59.928;10.682;2022-10-04T06:48:36;2.95;;;0.60;;
57155;SDS011;43023;59.928;10.682;2022-10-04T06:58:43;2.80;;;1.10;;
57155;SDS011;43023;59.928;10.682;2022-10-04T07:01:23;1.98;;;1.17;;
57155;SDS011;43023;59.928;10.682;2022-10-04T07:04:04;3.30;;;0.85;;
57155;SDS011;43023;59.928;10.682;2022-10-04T07:09:22;1.65;;;0.68;;
57155;SDS011;43023;59.928;10.682;2022-10-04T07:11:53;2.30;;;0.90;;
57155;SDS011;43023;59.928;10.682;2022-10-04T07:14:33;5.53;;;0.75;;
57155;SDS011;43023;59.928;10.682;2022-10-04T07:17:02;2.22;;;0.85;;
57155;SDS011;43023;59.928;10.682;2022-10-04T07:19:45;1.85;;;1.00;;
57155;SDS011;43023;59.928;10.682;2022-10-04T07:22:13;3.67;;;0.73;;
57155;SDS011;43023;59.928;10.682;2022-10-04T07:27:16;3.75;;;1.35;;
57155;SDS011;43023;59.928;10.682;2022-10-04T07:29:44;1.85;;;0.90;;
57155;SDS011;43023;59.928;10.682;2022-10-04T07:32:13;7.93;;;0.90;;
57155;SDS011;43023;59.928;10.682;2022-10-04T07:35:02;4.75;;;0.88;;
57155;SDS011;43023;59.928;10.682;2022-10-04T07:37:29;1.55;;;0.85;;
57155;SDS011;43023;59.928;10.682;2022-10-04T07:40:08;2.13;;;0.90;;
57155;SDS011;43023;59.928;10.682;2022-10-04T07:42:46;3.58;;;1.10;;
57155;SDS011;43023;59.928;10.682;2022-10-04T07:45:18;1.58;;;0.90;;
57155;SDS011;43023;59.928;10.682;2022-10-04T07:47:46;0.98;;;0.68;;
57155;SDS011;43023;59.928;10.682;2022-10-04T07:50:34;4.18;;;0.80;;
57155;SDS011;43023;59.928;10.682;2022-10-04T07:53:08;1.88;;;0.88;;
57155;SDS011;43023;59.928;10.682;2022-10-04T07:55:44;2.30;;;1.20;;
57155;SDS011;43023;59.928;10.682;2022-10-04T07:58:17;1.90;;;1.15;;
57155;SDS011;43023;59.928;10.682;2022-10-04T08:00:47;1.20;;;0.63;;
57155;SDS011;43023;59.928;10.682;2022-10-04T08:03:26;3.03;;;0.93;;
57155;SDS011;43023;59.928;10.682;2022-10-04T08:06:06;2.15;;;1.15;;
57155;SDS011;43023;59.928;10.682;2022-10-04T08:14:42;3.22;;;1.05;;
57155;SDS011;43023;59.928;10.682;2022-10-04T08:22:01;7.38;;;1.55;;
57155;SDS011;43023;59.928;10.682;2022-10-04T08:24:35;2.53;;;1.02;;
57155;SDS011;43023;59.928;10.682;2022-10-04T08:37:35;3.47;;;1.10;;
57155;SDS011;43023;59.928;10.682;2022-10-04T08:54:43;1.25;;;1.15;;
57155;SDS011;43023;59.928;10.682;2022-10-04T08:56:56;2.85;;;1.45;;
57155;SDS011;43023;59.928;10.682;2022-10-04T09:12:55;2.67;;;1.05;;
57155;SDS011;43023;59.928;10.682;2022-10-04T09:23:24;2.15;;;1.13;;
57155;SDS011;43023;59.928;10.682;2022-10-04T10:00:42;2.92;;;1.25;;
57155;SDS011;43023;59.928;10.682;2022-10-04T10:03:25;6.05;;;1.20;;
57155;SDS011;43023;59.928;10.682;2022-10-04T10:08:30;5.15;;;1.27;;
57155;SDS011;43023;59.928;10.682;2022-10-04T10:11:05;1.95;;;1.10;;
57155;SDS011;43023;59.928;10.682;2022-10-04T10:27:26;2.97;;;1.05;;
57155;SDS011;43023;59.928;10.682;2022-10-04T10:37:50;2.80;;;1.27;;
57155;SDS011;43023;59.928;10.682;2022-10-04T10:48:15;1.77;;;0.90;;
57155;SDS011;43023;59.928;10.682;2022-10-04T10:50:48;0.98;;;0.70;;
57155;SDS011;43023;59.928;10.682;2022-10-04T10:56:22;2.70;;;1.00;;
57155;SDS011;43023;59.928;10.682;2022-10-04T11:17:17;1.83;;;1.10;;
57155;SDS011;43023;59.928;10.682;2022-10-04T11:27:47;3.83;;;0.95;;
57155;SDS011;43023;59.928;10.682;2022-10-04T11:30:21;3.53;;;1.10;;
57155;SDS011;43023;59.928;10.682;2022-10-04T11:38:09;2.75;;;1.17;;
57155;SDS011;43023;59.928;10.682;2022-10-04T11:40:58;2.92;;;1.00;;
57155;SDS011;43023;59.928;10.682;2022-10-04T11:54:16;1.63;;;1.30;;
57155;SDS011;43023;59.928;10.682;2022-10-04T11:59:33;1.95;;;1.00;;
57155;SDS011;43023;59.928;10.682;2022-10-04T12:04:37;3.92;;;1.23;;
57155;SDS011;43023;59.928;10.682;2022-10-04T12:23:01;3.83;;;1.25;;
57155;SDS011;43023;59.928;10.682;2022-10-04T12:43:51;5.10;;;1.45;;
57155;SDS011;43023;59.928;10.682;2022-10-04T12:51:59;2.40;;;0.95;;
57155;SDS011;43023;59.928;10.682;2022-10-04T12:54:37;1.65;;;0.88;;
57155;SDS011;43023;59.928;10.682;2022-10-04T13:04:46;1.65;;;0.98;;
57155;SDS011;43023;59.928;10.682;2022-10-04T13:09:49;1.17;;;0.90;;
57155;SDS011;43023;59.928;10.682;2022-10-04T13:12:25;1.27;;;0.95;;
57155;SDS011;43023;59.928;10.682;2022-10-04T13:17:42;1.52;;;0.80;;
57155;SDS011;43023;59.928;10.682;2022-10-04T13:23:03;2.67;;;1.00;;
57155;SDS011;43023;59.928;10.682;2022-10-04T13:33:32;4.85;;;1.08;;
57155;SDS011;43023;59.928;10.682;2022-10-04T13:46:30;2.53;;;1.17;;
57155;SDS011;43023;59.928;10.682;2022-10-04T13:49:03;5.63;;;0.93;;
57155;SDS011;43023;59.928;10.682;2022-10-04T13:51:42;1.90;;;0.75;;
57155;SDS011;43023;59.928;10.682;2022-10-04T13:54:27;3.65;;;0.80;;
57155;SDS011;43023;59.928;10.682;2022-10-04T13:57:23;3.65;;;0.98;;
57155;SDS011;43023;59.928;10.682;2022-10-04T13:59:58;2.45;;;1.05;;
57155;SDS011;43023;59.928;10.682;2022-10-04T14:02:35;1.88;;;0.98;;
57155;SDS011;43023;59.928;10.682;2022-10-04T14:08:33;3.50;;;0.80;;
57155;SDS011;43023;59.928;10.682;2022-10-04T14:21:04;1.33;;;0.75;;
57155;SDS011;43023;59.928;10.682;2022-10-04T14:26:32;2.45;;;0.70;;
57155;SDS011;43023;59.928;10.682;2022-10-04T14:34:20;2.63;;;1.02;;
57155;SDS011;43023;59.928;10.682;2022-10-04T15:43:31;1.50;;;0.52;;
57155;SDS011;43023;59.928;10.682;2022-10-04T15:46:41;2.88;;;0.70;;
57155;SDS011;43023;59.928;10.682;2022-10-04T15:56:47;1.98;;;0.82;;
57155;SDS011;43023;59.928;10.682;2022-10-04T16:10:14;2.08;;;0.88;;
57155;SDS011;43023;59.928;10.682;2022-10-04T16:13:06;5.32;;;1.00;;
57155;SDS011;43023;59.928;10.682;2022-10-04T16:25:43;4.43;;;1.15;;
57155;SDS011;43023;59.928;10.682;2022-10-04T16:28:35;1.55;;;0.77;;
57155;SDS011;43023;59.928;10.682;2022-10-04T16:33:54;2.95;;;1.08;;
57155;SDS011;43023;59.928;10.682;2022-10-04T16:36:21;2.25;;;0.82;;
57155;SDS011;43023;59.928;10.682;2022-10-04T16:38:51;3.30;;;0.80;;
57155;SDS011;43023;59.928;10.682;2022-10-04T16:44:33;2.17;;;1.10;;
57155;SDS011;43023;59.928;10.682;2022-10-04T16:46:57;3.20;;;0.95;;
57155;SDS011;43023;59.928;10.682;2022-10-04T16:49:44;3.60;;;1.08;;
57155;SDS011;43023;59.928;10.682;2022-10-04T16:55:02;5.47;;;1.20;;
57155;SDS011;43023;59.928;10.682;2022-10-04T16:57:33;3.40;;;1.02;;
57155;SDS011;43023;59.928;10.682;2022-10-04T17:00:23;4.97;;;0.98;;
57155;SDS011;43023;59.928;10.682;2022-10-04T17:02:52;4.03;;;1.02;;
57155;SDS011;43023;59.928;10.682;2022-10-04T17:05:31;3.85;;;1.33;;
57155;SDS011;43023;59.928;10.682;2022-10-04T17:33:45;8.15;;;1.55;;
57155;SDS011;43023;59.928;10.682;2022-10-04T17:49:27;11.13;;;2.58;;
57155;SDS011;43023;59.928;10.682;2022-10-04T17:52:13;11.85;;;3.30;;
57155;SDS011;43023;59.928;10.682;2022-10-04T17:54:59;13.98;;;3.38;;
57155;SDS011;43023;59.928;10.682;2022-10-04T17:57:51;14.38;;;2.90;;
57155;SDS011;43023;59.928;10.682;2022-10-04T18:00:23;16.98;;;3.47;;
57155;SDS011;43023;59.928;10.682;2022-10-04T18:05:24;15.30;;;3.17;;
57155;SDS011;43023;59.928;10.682;2022-10-04T18:07:53;17.08;;;3.28;;
57155;SDS011;43023;59.928;10.682;2022-10-04T18:10:31;18.38;;;3.80;;
57155;SDS011;43023;59.928;10.682;2022-10-04T18:15:51;15.98;;;3.42;;
57155;SDS011;43023;59.928;10.682;2022-10-04T18:18:51;15.60;;;2.85;;
57155;SDS011;43023;59.928;10.682;2022-10-04T18:23:40;13.38;;;2.90;;
57155;SDS011;43023;59.928;10.682;2022-10-04T18:26:16;13.80;;;3.70;;
57155;SDS011;43023;59.928;10.682;2022-10-04T18:28:46;13.50;;;3.45;;
57155;SDS011;43023;59.928;10.682;2022-10-04T18:31:24;10.88;;;3.00;;
57155;SDS011;43023;59.928;10.682;2022-10-04T18:33:53;16.30;;;3.17;;
57155;SDS011;43023;59.928;10.682;2022-10-04T18:36:21;11.48;;;2.92;;
57155;SDS011;43023;59.928;10.682;2022-10-04T18:41:37;7.15;;;2.10;;
57155;SDS011;43023;59.928;10.682;2022-10-04T18:44:18;14.80;;;2.85;;
57155;SDS011;43023;59.928;10.682;2022-10-04T18:46:46;10.00;;;2.47;;
57155;SDS011;43023;59.928;10.682;2022-10-04T18:49:18;10.07;;;2.47;;
57155;SDS011;43023;59.928;10.682;2022-10-04T18:56:59;6.93;;;2.38;;
57155;SDS011;43023;59.928;10.682;2022-10-04T18:59:34;10.07;;;2.15;;
57155;SDS011;43023;59.928;10.682;2022-10-04T19:02:25;11.63;;;2.58;;
57155;SDS011;43023;59.928;10.682;2022-10-04T19:12:28;5.97;;;2.15;;
57155;SDS011;43023;59.928;10.682;2022-10-04T19:15:02;9.77;;;2.42;;
57155;SDS011;43023;59.928;10.682;2022-10-04T19:17:35;3.95;;;1.50;;
57155;SDS011;43023;59.928;10.682;2022-10-04T19:20:11;7.15;;;1.83;;
57155;SDS011;43023;59.928;10.682;2022-10-04T19:27:56;9.43;;;2.15;;
57155;SDS011;43023;59.928;10.682;2022-10-04T19:30:26;5.32;;;1.65;;
57155;SDS011;43023;59.928;10.682;2022-10-04T19:32:55;5.55;;;1.77;;
57155;SDS011;43023;59.928;10.682;2022-10-04T19:40:39;8.55;;;1.63;;
57155;SDS011;43023;59.928;10.682;2022-10-04T19:43:13;5.68;;;2.00;;
57155;SDS011;43023;59.928;10.682;2022-10-04T19:48:13;7.72;;;1.60;;
57155;SDS011;43023;59.928;10.682;2022-10-04T19:50:43;7.32;;;1.58;;
57155;SDS011;43023;59.928;10.682;2022-10-04T19:53:17;4.95;;;1.50;;
57155;SDS011;43023;59.928;10.682;2022-10-04T19:55:56;6.93;;;1.67;;
57155;SDS011;43023;59.928;10.682;2022-10-04T19:58:35;5.05;;;1.52;;
57155;SDS011;43023;59.928;10.682;2022-10-04T20:03:35;7.28;;;1.63;;
57155;SDS011;43023;59.928;10.682;2022-10-04T20:06:01;6.60;;;1.00;;
57155;SDS011;43023;59.928;10.682;2022-10-04T20:11:16;3.92;;;1.50;;
57155;SDS011;43023;59.928;10.682;2022-10-04T20:13:43;6.05;;;1.65;;
57155;SDS011;43023;59.928;10.682;2022-10-04T20:16:09;4.00;;;1.67;;
57155;SDS011;43023;59.928;10.682;2022-10-04T20:18:49;3.10;;;1.35;;
57155;SDS011;43023;59.928;10.682;2022-10-04T20:21:22;3.75;;;1.17;;
57155;SDS011;43023;59.928;10.682;2022-10-04T20:23:49;2.20;;;1.05;;
57155;SDS011;43023;59.928;10.682;2022-10-04T20:29:58;2.95;;;0.98;;
57155;SDS011;43023;59.928;10.682;2022-10-04T20:34:33;3.53;;;0.90;;
57155;SDS011;43023;59.928;10.682;2022-10-04T20:37:00;5.03;;;1.13;;
57155;SDS011;43023;59.928;10.682;2022-10-04T20:44:54;7.07;;;1.60;;
57155;SDS011;43023;59.928;10.682;2022-10-04T20:50:11;5.75;;;1.38;;
57155;SDS011;43023;59.928;10.682;2022-10-04T20:52:42;6.90;;;1.60;;
57155;SDS011;43023;59.928;10.682;2022-10-04T20:55:28;5.53;;;1.13;;
57155;SDS011;43023;59.928;10.682;2022-10-04T20:57:55;2.28;;;0.95;;
57155;SDS011;43023;59.928;10.682;2022-10-04T21:00:23;4.07;;;1.10;;
57155;SDS011;43023;59.928;10.682;2022-10-04T21:02:49;5.97;;;1.30;;
57155;SDS011;43023;59.928;10.682;2022-10-04T21:05:30;2.55;;;0.70;;
57155;SDS011;43023;59.928;10.682;2022-10-04T21:10:37;5.45;;;1.00;;
57155;SDS011;43023;59.928;10.682;2022-10-04T21:13:03;3.28;;;0.80;;
57155;SDS011;43023;59.928;10.682;2022-10-04T21:15:29;3.63;;;0.95;;
57155;SDS011;43023;59.928;10.682;2022-10-04T21:18:03;2.55;;;0.82;;
57155;SDS011;43023;59.928;10.682;2022-10-04T21:20:48;6.13;;;1.00;;
57155;SDS011;43023;59.928;10.682;2022-10-04T21:25:41;3.28;;;1.00;;
57155;SDS011;43023;59.928;10.682;2022-10-04T21:28:23;4.78;;;1.13;;
57155;SDS011;43023;59.928;10.682;2022-10-04T21:30:49;3.63;;;1.08;;
57155;SDS011;43023;59.928;10.682;2022-10-04T21:33:15;4.90;;;0.90;;
57155;SDS011;43023;59.928;10.682;2022-10-04T21:35:41;5.65;;;1.77;;
57155;SDS011;43023;59.928;10.682;2022-10-04T21:38:07;8.20;;;1.08;;
57155;SDS011;43023;59.928;10.682;2022-10-04T21:40:33;3.75;;;0.93;;
57155;SDS011;43023;59.928;10.682;2022-10-04T21:42:59;2.88;;;0.77;;
57155;SDS011;43023;59.928;10.682;2022-10-04T21:45:25;2.63;;;1.05;;
57155;SDS011;43023;59.928;10.682;2022-10-04T21:47:51;9.02;;;1.27;;
57155;SDS011;43023;59.928;10.682;2022-10-04T21:50:17;3.72;;;1.00;;
57155;SDS011;43023;59.928;10.682;2022-10-04T21:52:43;7.38;;;1.40;;
57155;SDS011;43023;59.928;10.682;2022-10-04T21:55:09;4.82;;;0.68;;
57155;SDS011;43023;59.928;10.682;2022-10-04T21:57:35;3.45;;;0.98;;
57155;SDS011;43023;59.928;10.682;2022-10-04T22:00:02;4.13;;;0.90;;
57155;SDS011;43023;59.928;10.682;2022-10-04T22:02:29;3.33;;;0.82;;
57155;SDS011;43023;59.928;10.682;2022-10-04T22:04:55;4.05;;;0.98;;
57155;SDS011;43023;59.928;10.682;2022-10-04T22:07:21;3.72;;;1.15;;
57155;SDS011;43023;59.928;10.682;2022-10-04T22:09:47;3.47;;;0.80;;
57155;SDS011;43023;59.928;10.682;2022-10-04T22:12:13;2.80;;;0.88;;
57155;SDS011;43023;59.928;10.682;2022-10-04T22:14:39;4.70;;;1.00;;
57155;SDS011;43023;59.928;10.682;2022-10-04T22:17:05;3.53;;;1.15;;
57155;SDS011;43023;59.928;10.682;2022-10-04T22:19:31;3.10;;;1.10;;
57155;SDS011;43023;59.928;10.682;2022-10-04T22:21:57;2.40;;;0.80;;
57155;SDS011;43023;59.928;10.682;2022-10-04T22:24:23;4.53;;;1.10;;
57155;SDS011;43023;59.928;10.682;2022-10-04T22:26:49;2.50;;;1.10;;
57155;SDS011;43023;59.928;10.682;2022-10-04T22:29:16;2.22;;;0.77;;
57155;SDS011;43023;59.928;10.682;2022-10-04T22:31:47;4.63;;;1.45;;
57155;SDS011;43023;59.928;10.682;2022-10-04T22:34:14;2.78;;;0.93;;
57155;SDS011;43023;59.928;10.682;2022-10-04T22:36:41;3.20;;;1.10;;
57155;SDS011;43023;59.928;10.682;2022-10-04T22:41:34;2.72;;;0.93;;
57155;SDS011;43023;59.928;10.682;2022-10-04T22:44:17;3.15;;;1.08;;
57155;SDS011;43023;59.928;10.682;2022-10-04T22:46:45;4.47;;;1.10;;
57155;SDS011;43023;59.928;10.682;2022-10-04T22:49:12;1.00;;;0.70;;
57155;SDS011;43023;59.928;10.682;2022-10-04T22:51:40;4.68;;;1.08;;
57155;SDS011;43023;59.928;10.682;2022-10-04T22:54:16;3.03;;;0.60;;
57155;SDS011;43023;59.928;10.682;2022-10-04T22:56:42;1.98;;;0.98;;
57155;SDS011;43023;59.928;10.682;2022-10-04T22:59:09;1.20;;;0.82;;
57155;SDS011;43023;59.928;10.682;2022-10-04T23:01:35;1.88;;;0.60;;
57155;SDS011;43023;59.928;10.682;2022-10-04T23:04:02;1.83;;;1.00;;
57155;SDS011;43023;59.928;10.682;2022-10-04T23:06:28;2.80;;;1.17;;
57155;SDS011;43023;59.928;10.682;2022-10-04T23:08:54;2.10;;;1.40;;
57155;SDS011;43023;59.928;10.682;2022-10-04T23:11:20;1.58;;;0.70;;
57155;SDS011;43023;59.928;10.682;2022-10-04T23:13:46;3.38;;;1.00;;
57155;SDS011;43023;59.928;10.682;2022-10-04T23:16:16;2.47;;;0.82;;
57155;SDS011;43023;59.928;10.682;2022-10-04T23:18:43;2.67;;;0.77;;
57155;SDS011;43023;59.928;10.682;2022-10-04T23:23:44;1.85;;;0.93;;
57155;SDS011;43023;59.928;10.682;2022-10-04T23:26:12;2.65;;;0.50;;
57155;SDS011;43023;59.928;10.682;2022-10-04T23:28:38;1.00;;;0.63;;
57155;SDS011;43023;59.928;10.682;2022-10-04T23:31:07;1.80;;;0.40;;
57155;SDS011;43023;59.928;10.682;2022-10-04T23:33:35;5.10;;;0.80;;
57155;SDS011;43023;59.928;10.682;2022-10-04T23:36:01;1.52;;;0.70;;
57155;SDS011;43023;59.928;10.682;2022-10-04T23:38:27;1.88;;;1.08;;
57155;SDS011;43023;59.928;10.682;2022-10-04T23:40:55;2.13;;;1.35;;
57155;SDS011;43023;59.928;10.682;2022-10-04T23:43:21;2.53;;;0.93;;
57155;SDS011;43023;59.928;10.682;2022-10-04T23:45:53;2.80;;;0.73;;
57155;SDS011;43023;59.928;10.682;2022-10-04T23:48:21;2.17;;;0.52;;
57155;SDS011;43023;59.928;10.682;2022-10-04T23:50:48;1.23;;;0.88;;
57155;SDS011;43023;59.928;10.682;2022-10-04T23:53:33;0.93;;;0.60;;
57155;SDS011;43023;59.928;10.682;2022-10-04T23:56:01;2.17;;;0.63;;
57155;SDS011;43023;59.928;10.682;2022-10-04T23:58:33;4.05;;;1.55;;
